createdAt,value
2019-05-05T00:00:51.953Z,97970.41
2019-05-05T00:03:58.326Z,97981.25
2019-05-05T00:07:04.440Z,97978.66
2019-05-05T00:10:11.741Z,97978.14
2019-05-05T00:13:25.184Z,97977.94
2019-05-05T00:16:29.735Z,97975.50
2019-05-05T00:19:35.873Z,97970.62
2019-05-05T00:22:40.732Z,97967.00
2019-05-05T00:25:45.176Z,97967.47
2019-05-05T00:28:49.610Z,97958.56
2019-05-05T00:31:54.694Z,97962.45
2019-05-05T00:34:59.666Z,97961.62
2019-05-05T00:38:05.065Z,97957.33
2019-05-05T00:41:09.713Z,97969.49
2019-05-05T00:44:15.366Z,97973.85
2019-05-05T00:47:37.810Z,97981.27
2019-05-05T00:50:42.249Z,97999.23
2019-05-05T00:53:46.684Z,97997.51
2019-05-05T00:56:51.415Z,98008.73
2019-05-05T00:59:55.862Z,98006.78
2019-05-05T01:03:00.581Z,98010.31
2019-05-05T01:06:10.614Z,98001.41
2019-05-05T01:09:16.826Z,98000.97
2019-05-05T01:12:21.621Z,98012.53
2019-05-05T01:15:26.346Z,98025.25
2019-05-05T01:18:30.781Z,98031.89
2019-05-05T01:21:35.219Z,98035.48
2019-05-05T01:24:39.654Z,98042.69
2019-05-05T01:27:45.355Z,98053.58
2019-05-05T01:30:51.533Z,98045.34
2019-05-05T01:34:04.846Z,98046.92
2019-05-05T01:37:15.178Z,98046.99
2019-05-05T01:40:22.162Z,98050.46
2019-05-05T01:43:26.595Z,98047.30
2019-05-05T01:46:31.371Z,98052.36
2019-05-05T01:49:36.109Z,98048.31
2019-05-05T01:52:40.553Z,98052.78
2019-05-05T01:55:45.294Z,98050.44
2019-05-05T01:58:50.683Z,98052.16
2019-05-05T02:01:55.426Z,98054.45
2019-05-05T02:05:00.175Z,98057.82
2019-05-05T02:08:05.080Z,98060.16
2019-05-05T02:11:10.036Z,98060.30
2019-05-05T02:14:15.566Z,98060.69
2019-05-05T02:17:20.527Z,98054.37
2019-05-05T02:20:54.437Z,98052.41
2019-05-05T02:23:59.174Z,98056.39
2019-05-05T02:27:05.125Z,98064.59
2019-05-05T02:30:17.741Z,98057.19
2019-05-05T02:33:25.894Z,98064.84
2019-05-05T02:36:29.866Z,98060.06
2019-05-05T02:39:37.928Z,98056.30
2019-05-05T02:42:41.922Z,98062.81
2019-05-05T02:46:07.313Z,98067.05
2019-05-05T02:49:14.931Z,98073.50
2019-05-05T02:52:20.881Z,98067.17
2019-05-05T02:55:25.589Z,98077.75
2019-05-05T02:58:33.832Z,98079.84
2019-05-05T03:01:39.918Z,98083.20
2019-05-05T03:04:45.843Z,98083.78
2019-05-05T03:07:50.369Z,98087.50
2019-05-05T03:10:55.131Z,98088.50
2019-05-05T03:14:01.618Z,98090.34
2019-05-05T03:17:10.417Z,98086.56
2019-05-05T03:20:14.921Z,98085.84
2019-05-05T03:23:19.500Z,98087.32
2019-05-05T03:26:24.882Z,98092.73
2019-05-05T03:29:30.228Z,98094.20
2019-05-05T03:32:36.002Z,98098.70
2019-05-05T03:35:40.838Z,98099.47
2019-05-05T03:38:46.522Z,98101.95
2019-05-05T03:41:54.309Z,98098.50
2019-05-05T03:45:00.873Z,98103.95
2019-05-05T03:48:05.674Z,98112.23
2019-05-05T03:51:18.755Z,98119.97
2019-05-05T03:54:17.082Z,98116.80
2019-05-05T03:57:24.523Z,98116.09
2019-05-05T04:00:54.810Z,98121.64
2019-05-05T04:04:17.129Z,98126.20
2019-05-05T04:07:21.746Z,98117.66
2019-05-05T04:10:26.619Z,98118.37
2019-05-05T04:13:31.652Z,98115.58
2019-05-05T04:16:40.389Z,98113.67
2019-05-05T04:19:49.186Z,98107.30
2019-05-05T04:22:54.254Z,98113.11
2019-05-05T04:25:59.863Z,98115.27
2019-05-05T04:29:05.505Z,98124.25
2019-05-05T04:32:09.992Z,98125.84
2019-05-05T04:35:14.635Z,98120.21
2019-05-05T04:38:19.429Z,98122.87
2019-05-05T04:41:24.570Z,98124.13
2019-05-05T04:44:29.186Z,98125.13
2019-05-05T04:47:35.571Z,98131.34
2019-05-05T04:50:56.885Z,98132.53
2019-05-05T04:54:15.445Z,98128.36
2019-05-05T04:57:24.043Z,98127.80
2019-05-05T05:00:26.646Z,98131.27
2019-05-05T05:03:34.758Z,98132.22
2019-05-05T05:06:49.530Z,98131.45
2019-05-05T05:09:54.248Z,98141.52
2019-05-05T05:12:58.981Z,98143.30
2019-05-05T05:16:04.517Z,98144.41
2019-05-05T05:19:09.467Z,98152.20
2019-05-05T05:22:14.198Z,98154.52
2019-05-05T05:25:19.478Z,98161.95
2019-05-05T05:28:23.927Z,98166.75
2019-05-05T05:31:28.365Z,98171.69
2019-05-05T05:34:34.414Z,98167.84
2019-05-05T05:37:39.288Z,98178.28
2019-05-05T05:40:44.458Z,98182.08
2019-05-05T05:43:50.662Z,98187.99
2019-05-05T05:47:03.612Z,98192.22
2019-05-05T05:50:14.312Z,98200.34
2019-05-05T05:53:19.221Z,98207.25
2019-05-05T05:56:24.993Z,98210.67
2019-05-05T05:59:29.485Z,98221.50
2019-05-05T06:02:34.236Z,98228.20
2019-05-05T06:05:38.749Z,98222.16
2019-05-05T06:08:44.084Z,98231.00
2019-05-05T06:11:48.709Z,98227.22
2019-05-05T06:14:53.748Z,98234.76
2019-05-05T06:17:58.277Z,98224.38
2019-05-05T06:21:04.457Z,98238.25
2019-05-05T06:24:10.807Z,98238.97
2019-05-05T06:27:15.563Z,98242.63
2019-05-05T06:30:20.078Z,98241.09
2019-05-05T06:33:24.815Z,98248.45
2019-05-05T06:36:29.309Z,98252.30
2019-05-05T06:39:34.208Z,98254.03
2019-05-05T06:42:49.462Z,98255.46
2019-05-05T06:45:58.384Z,98251.52
2019-05-05T06:49:04.384Z,98251.98
2019-05-05T06:52:09.277Z,98254.63
2019-05-05T06:55:14.312Z,98259.43
2019-05-05T06:58:18.746Z,98262.91
2019-05-05T07:01:24.744Z,98261.84
2019-05-05T07:04:29.385Z,98264.54
2019-05-05T07:07:34.412Z,98265.81
2019-05-05T07:10:38.964Z,98270.39
2019-05-05T07:13:44.300Z,98274.12
2019-05-05T07:16:49.277Z,98280.84
2019-05-05T07:19:54.395Z,98289.61
2019-05-05T07:23:02.403Z,98287.16
2019-05-05T07:26:05.519Z,98288.22
2019-05-05T07:29:10.247Z,98287.14
2019-05-05T07:32:14.683Z,98297.95
2019-05-05T07:35:34.465Z,98304.82
2019-05-05T07:38:38.799Z,98307.55
2019-05-05T07:41:44.704Z,98308.11
2019-05-05T07:44:49.251Z,98313.91
2019-05-05T07:47:54.306Z,98320.80
2019-05-05T07:51:02.853Z,98322.59
2019-05-05T07:54:05.453Z,98325.23
2019-05-05T07:57:10.233Z,98337.05
2019-05-05T08:00:14.951Z,98344.02
2019-05-05T08:03:19.592Z,98343.03
2019-05-05T08:06:24.025Z,98347.77
2019-05-05T08:09:28.758Z,98349.06
2019-05-05T08:12:34.163Z,98344.47
2019-05-05T08:15:55.998Z,98358.88
2019-05-05T08:18:57.139Z,98356.77
2019-05-05T08:22:03.737Z,98358.06
2019-05-05T08:25:33.566Z,98358.45
2019-05-05T08:28:27.028Z,98356.47
2019-05-05T08:31:53.586Z,98361.89
2019-05-05T08:35:00.818Z,98356.02
2019-05-05T08:38:04.547Z,98359.58
2019-05-05T08:41:09.504Z,98353.81
2019-05-05T08:44:16.254Z,98349.97
2019-05-05T08:47:20.118Z,98354.06
2019-05-05T08:50:27.005Z,98342.09
2019-05-05T08:53:44.041Z,98345.58
2019-05-05T08:56:37.461Z,98348.98
2019-05-05T08:59:43.970Z,98345.19
2019-05-05T09:02:48.520Z,98346.86
2019-05-05T09:05:54.208Z,98339.34
2019-05-05T09:08:58.802Z,98342.27
2019-05-05T09:12:04.535Z,98351.12
2019-05-05T09:15:09.662Z,98341.95
2019-05-05T09:18:14.297Z,98339.30
2019-05-05T09:21:19.196Z,98339.06
2019-05-05T09:24:34.026Z,98329.80
2019-05-05T09:27:39.802Z,98330.39
2019-05-05T09:30:45.930Z,98332.02
2019-05-05T09:33:50.609Z,98328.55
2019-05-05T09:36:55.379Z,98320.22
2019-05-05T09:40:00.217Z,98321.82
2019-05-05T09:43:06.027Z,98317.80
2019-05-05T09:46:11.271Z,98310.42
2019-05-05T09:49:16.214Z,98319.63
2019-05-05T09:52:20.658Z,98324.78
2019-05-05T09:55:25.394Z,98325.05
2019-05-05T09:58:29.829Z,98324.22
2019-05-05T10:01:34.523Z,98324.70
2019-05-05T10:04:39.259Z,98329.25
2019-05-05T10:07:44.124Z,98329.77
2019-05-05T10:10:48.687Z,98331.63
2019-05-05T10:13:54.620Z,98337.31
2019-05-05T10:16:59.406Z,98333.42
2019-05-05T10:20:06.082Z,98332.89
2019-05-05T10:23:10.806Z,98324.84
2019-05-05T10:26:15.247Z,98328.59
2019-05-05T10:29:20.093Z,98335.05
2019-05-05T10:32:24.642Z,98343.36
2019-05-05T10:35:29.322Z,98344.42
2019-05-05T10:38:35.694Z,98347.02
2019-05-05T10:41:40.128Z,98349.07
2019-05-05T10:44:44.686Z,98347.53
2019-05-05T10:47:49.791Z,98348.60
2019-05-05T10:50:54.217Z,98356.07
2019-05-05T10:53:58.653Z,98357.33
2019-05-05T10:57:04.004Z,98354.81
2019-05-05T11:00:12.703Z,98356.66
2019-05-05T11:03:16.518Z,98361.48
2019-05-05T11:06:21.341Z,98353.73
2019-05-05T11:09:25.775Z,98362.77
2019-05-05T11:12:30.210Z,98360.61
2019-05-05T11:15:34.720Z,98357.42
2019-05-05T11:18:39.158Z,98364.51
2019-05-05T11:21:43.866Z,98364.51
2019-05-05T11:24:58.228Z,98353.08
2019-05-05T11:27:55.177Z,98352.80
2019-05-05T11:31:00.208Z,98352.64
2019-05-05T11:34:06.578Z,98353.02
2019-05-05T11:37:12.646Z,98345.97
2019-05-05T11:40:19.009Z,98340.73
2019-05-05T11:43:24.691Z,98347.50
2019-05-05T11:46:29.595Z,98348.89
2019-05-05T11:49:34.034Z,98353.44
2019-05-05T11:52:38.755Z,98350.20
2019-05-05T11:55:44.245Z,98359.39
2019-05-05T11:58:48.896Z,98361.77
2019-05-05T12:01:55.013Z,98362.56
2019-05-05T12:04:59.929Z,98364.15
2019-05-05T12:08:04.353Z,98359.36
2019-05-05T12:11:08.795Z,98362.92
2019-05-05T12:14:15.142Z,98358.05
2019-05-05T12:17:21.512Z,98361.04
2019-05-05T12:20:37.122Z,98363.98
2019-05-05T12:23:41.547Z,98352.81
2019-05-05T12:26:47.892Z,98360.63
2019-05-05T12:29:54.471Z,98358.25
2019-05-05T12:32:58.753Z,98360.16
2019-05-05T12:36:04.428Z,98360.50
2019-05-05T12:39:11.063Z,98352.98
2019-05-05T12:42:15.509Z,98351.92
2019-05-05T12:45:23.965Z,98351.91
2019-05-05T12:48:34.392Z,98343.83
2019-05-05T12:51:38.526Z,98348.09
2019-05-05T12:54:44.074Z,98343.78
2019-05-05T12:57:48.696Z,98343.53
2019-05-05T13:01:04.852Z,98336.31
2019-05-05T13:04:09.355Z,98343.31
2019-05-05T13:07:14.074Z,98339.06
2019-05-05T13:10:21.621Z,98336.62
2019-05-05T13:13:26.131Z,98334.73
2019-05-05T13:16:30.825Z,98336.05
2019-05-05T13:19:36.903Z,98335.92
2019-05-05T13:22:49.503Z,98335.28
2019-05-05T13:26:14.357Z,98332.25
2019-05-05T13:29:18.320Z,98330.19
2019-05-05T13:32:24.733Z,98322.94
2019-05-05T13:35:29.285Z,98325.49
2019-05-05T13:38:34.408Z,98327.80
2019-05-05T13:41:38.960Z,98330.75
2019-05-05T13:44:50.993Z,98328.31
2019-05-05T13:47:55.817Z,98327.09
2019-05-05T13:51:04.155Z,98325.30
2019-05-05T13:54:08.360Z,98327.22
2019-05-05T13:57:14.405Z,98324.56
2019-05-05T14:00:19.587Z,98323.25
2019-05-05T14:03:24.034Z,98325.09
2019-05-05T14:06:28.568Z,98325.52
2019-05-05T14:09:33.005Z,98326.27
2019-05-05T14:12:37.454Z,98308.98
2019-05-05T14:15:43.964Z,98304.27
2019-05-05T14:18:48.752Z,98301.41
2019-05-05T14:21:53.903Z,98292.20
2019-05-05T14:25:00.149Z,98291.78
2019-05-05T14:28:04.662Z,98293.01
2019-05-05T14:31:14.213Z,98285.52
2019-05-05T14:34:23.057Z,98287.38
2019-05-05T14:37:27.340Z,98291.98
2019-05-05T14:40:33.776Z,98292.41
2019-05-05T14:43:37.946Z,98296.16
2019-05-05T14:46:44.583Z,98296.79
2019-05-05T14:49:49.181Z,98290.31
2019-05-05T14:52:53.655Z,98286.67
2019-05-05T14:55:58.319Z,98294.40
2019-05-05T14:59:03.737Z,98292.34
2019-05-05T15:02:08.717Z,98292.13
2019-05-05T15:05:30.800Z,98284.41
2019-05-05T15:08:54.854Z,98294.87
2019-05-05T15:12:00.954Z,98289.45
2019-05-05T15:15:07.489Z,98293.87
2019-05-05T15:18:14.487Z,98292.35
2019-05-05T15:21:18.764Z,98302.98
2019-05-05T15:24:24.575Z,98299.27
2019-05-05T15:27:29.352Z,98303.91
2019-05-05T15:30:34.086Z,98308.18
2019-05-05T15:33:38.532Z,98309.95
2019-05-05T15:36:43.955Z,98319.73
2019-05-05T15:39:48.489Z,98320.59
2019-05-05T15:42:54.470Z,98317.63
2019-05-05T15:45:59.379Z,98322.81
2019-05-05T15:49:04.307Z,98325.78
2019-05-05T15:52:08.751Z,98322.59
2019-05-05T15:55:14.241Z,98321.80
2019-05-05T15:58:20.743Z,98324.18
2019-05-05T16:01:25.327Z,98323.72
2019-05-05T16:04:29.777Z,98324.25
2019-05-05T16:07:34.542Z,98328.83
2019-05-05T16:10:39.270Z,98328.30
2019-05-05T16:13:44.131Z,98328.03
2019-05-05T16:16:56.060Z,98328.86
2019-05-05T16:20:04.423Z,98324.81
2019-05-05T16:23:19.318Z,98326.97
2019-05-05T16:26:24.565Z,98327.23
2019-05-05T16:29:29.150Z,98335.83
2019-05-05T16:32:33.592Z,98329.12
2019-05-05T16:35:38.311Z,98327.23
2019-05-05T16:38:43.614Z,98323.23
2019-05-05T16:41:48.602Z,98326.98
2019-05-05T16:44:53.933Z,98328.05
2019-05-05T16:47:58.456Z,98326.20
2019-05-05T16:51:03.677Z,98329.41
2019-05-05T16:54:09.763Z,98323.50
2019-05-05T16:57:14.522Z,98333.95
2019-05-05T17:00:21.541Z,98333.41
2019-05-05T17:03:25.822Z,98333.17
2019-05-05T17:06:30.643Z,98330.73
2019-05-05T17:09:35.372Z,98335.58
2019-05-05T17:12:39.831Z,98338.78
2019-05-05T17:15:46.143Z,98336.12
2019-05-05T17:18:50.389Z,98344.68
2019-05-05T17:21:56.754Z,98337.98
2019-05-05T17:25:02.400Z,98338.00
2019-05-05T17:28:06.846Z,98342.02
2019-05-05T17:31:11.572Z,98345.23
2019-05-05T17:34:16.021Z,98349.25
2019-05-05T17:37:20.722Z,98356.48
2019-05-05T17:40:29.212Z,98352.95
2019-05-05T17:43:47.583Z,98351.85
2019-05-05T17:47:02.166Z,98360.67
2019-05-05T17:50:23.786Z,98355.59
2019-05-05T17:53:45.717Z,98359.34
2019-05-05T17:56:52.451Z,98362.25
2019-05-05T17:59:56.587Z,98359.01
2019-05-05T18:03:01.025Z,98367.55
2019-05-05T18:06:14.344Z,98362.97
2019-05-05T18:09:20.927Z,98367.50
2019-05-05T18:12:29.458Z,98369.09
2019-05-05T18:15:51.634Z,98372.55
2019-05-05T18:18:56.828Z,98373.31
2019-05-05T18:22:01.262Z,98373.30
2019-05-05T18:25:06.784Z,98382.09
2019-05-05T18:28:16.943Z,98379.38
2019-05-05T18:31:21.047Z,98381.59
2019-05-05T18:34:25.485Z,98388.81
2019-05-05T18:37:30.169Z,98387.02
2019-05-05T18:40:34.605Z,98390.68
2019-05-05T18:43:49.424Z,98390.36
2019-05-05T18:47:14.433Z,98395.54
2019-05-05T18:50:16.864Z,98404.98
2019-05-05T18:53:21.311Z,98405.34
2019-05-05T18:56:26.210Z,98399.58
2019-05-05T18:59:30.644Z,98401.06
2019-05-05T19:02:38.083Z,98405.28
2019-05-05T19:05:44.208Z,98400.16
2019-05-05T19:08:54.285Z,98416.64
2019-05-05T19:11:56.989Z,98415.73
2019-05-05T19:15:01.717Z,98418.05
2019-05-05T19:18:06.788Z,98421.75
2019-05-05T19:21:24.752Z,98422.51
2019-05-05T19:24:29.328Z,98423.30
2019-05-05T19:27:33.754Z,98428.41
2019-05-05T19:30:38.272Z,98431.48
2019-05-05T19:33:42.698Z,98437.13
2019-05-05T19:36:47.140Z,98430.84
2019-05-05T19:39:51.952Z,98431.86
2019-05-05T19:42:56.382Z,98436.72
2019-05-05T19:46:01.158Z,98435.39
2019-05-05T19:49:15.205Z,98430.27
2019-05-05T19:52:19.727Z,98438.17
2019-05-05T19:55:24.524Z,98442.94
2019-05-05T19:58:29.365Z,98437.75
2019-05-05T20:01:37.574Z,98437.69
2019-05-05T20:04:40.474Z,98449.12
2019-05-05T20:07:45.185Z,98445.87
2019-05-05T20:10:49.943Z,98451.40
2019-05-05T20:14:06.694Z,98440.41
2019-05-05T20:17:05.514Z,98436.88
2019-05-05T20:20:13.708Z,98436.55
2019-05-05T20:23:18.254Z,98436.33
2019-05-05T20:26:23.938Z,98439.23
2019-05-05T20:29:28.740Z,98443.20
2019-05-05T20:32:34.835Z,98443.42
2019-05-05T20:35:46.683Z,98436.13
2019-05-05T20:38:54.669Z,98440.23
2019-05-05T20:41:59.336Z,98447.45
2019-05-05T20:45:05.194Z,98446.02
2019-05-05T20:48:09.929Z,98446.50
2019-05-05T20:51:14.654Z,98449.73
2019-05-05T20:54:19.084Z,98445.06
2019-05-05T20:57:23.774Z,98437.44
2019-05-05T21:00:28.197Z,98431.88
2019-05-05T21:03:34.692Z,98432.13
2019-05-05T21:06:39.130Z,98429.96
2019-05-05T21:09:43.865Z,98427.32
2019-05-05T21:12:48.801Z,98428.44
2019-05-05T21:15:53.871Z,98426.80
2019-05-05T21:18:58.873Z,98426.73
2019-05-05T21:22:21.220Z,98428.88
2019-05-05T21:25:33.891Z,98422.03
2019-05-05T21:28:38.440Z,98430.80
2019-05-05T21:31:43.846Z,98427.48
2019-05-05T21:34:48.746Z,98424.13
2019-05-05T21:37:54.338Z,98431.30
2019-05-05T21:40:59.742Z,98429.39
2019-05-05T21:44:06.332Z,98425.83
2019-05-05T21:47:11.045Z,98429.38
2019-05-05T21:50:17.119Z,98429.95
2019-05-05T21:53:24.628Z,98430.77
2019-05-05T21:56:37.325Z,98427.26
2019-05-05T21:59:54.391Z,98423.02
2019-05-05T22:02:48.000Z,98432.09
2019-05-05T22:05:53.907Z,98437.51
2019-05-05T22:08:59.408Z,98430.53
2019-05-05T22:12:04.259Z,98431.83
2019-05-05T22:15:08.875Z,98433.19
2019-05-05T22:18:14.454Z,98438.75
2019-05-05T22:21:27.512Z,98433.16
2019-05-05T22:24:33.396Z,98434.00
2019-05-05T22:27:38.443Z,98436.00
2019-05-05T22:30:43.732Z,98436.52
2019-05-05T22:33:48.196Z,98430.05
2019-05-05T22:36:52.944Z,98434.98
2019-05-05T22:39:57.680Z,98432.66
2019-05-05T22:43:03.695Z,98436.75
2019-05-05T22:46:08.431Z,98431.77
2019-05-05T22:49:14.694Z,98427.42
2019-05-05T22:52:19.021Z,98432.50
2019-05-05T22:55:24.739Z,98431.77
2019-05-05T22:58:29.747Z,98430.63
2019-05-05T23:01:34.481Z,98434.37
2019-05-05T23:04:50.060Z,98433.52
2019-05-05T23:07:54.625Z,98436.66
2019-05-05T23:10:59.434Z,98432.61
2019-05-05T23:14:21.263Z,98442.02
2019-05-05T23:17:39.569Z,98437.69
2019-05-05T23:20:56.117Z,98434.34
2019-05-05T23:24:03.872Z,98436.27
2019-05-05T23:27:10.280Z,98437.20
2019-05-05T23:30:16.010Z,98446.66
2019-05-05T23:33:20.875Z,98443.25
2019-05-05T23:36:25.313Z,98444.22
2019-05-05T23:39:29.759Z,98447.13
2019-05-05T23:42:34.545Z,98441.53
2019-05-05T23:45:38.981Z,98443.06
2019-05-05T23:48:43.482Z,98447.08
2019-05-05T23:51:48.230Z,98450.02
2019-05-05T23:54:52.668Z,98444.84
2019-05-05T23:57:57.105Z,98445.22
